Time;durP1;ratioP1;P1;durP2;ratioP2;P2;SDS_P1;SDS_P2;PMS_P1;PMS_P2;Temp;Humidity;BMP_temperature;BMP_pressure;BME280_temperature;BME280_humidity;BME280_pressure;Samples;Min_cycle;Max_cycle;Signal;HPM_P1;HPM_P2
2022/11/10 00:00:26;;;;;;;9.30;3.70;;;;;;;;;;4986794;28;20512;-61
2022/11/10 00:03:11;;;;;;;13.65;3.58;;;;;;;;;;4976872;28;20152;-60
2022/11/10 00:05:56;;;;;;;11.30;3.42;;;;;;;;;;4983763;28;20083;-60
2022/11/10 00:08:40;;;;;;;10.13;3.22;;;;;;;;;;4988147;28;20033;-61
2022/11/10 00:11:25;;;;;;;8.55;3.45;;;;;;;;;;4978454;28;20049;-60
2022/11/10 00:17:12;;;;;;;;;;;;;;;;;;4977429;28;20045;-61
2022/11/10 00:19:57;;;;;;;11.27;2.92;;;;;;;;;;4983413;28;19956;-60
2022/11/10 00:22:42;;;;;;;8.85;2.65;;;;;;;;;;4989680;28;20033;-60
2022/11/10 00:25:27;;;;;;;8.52;3.88;;;;;;;;;;4980402;28;20180;-60
2022/11/10 00:28:12;;;;;;;6.53;2.75;;;;;;;;;;4983850;28;20076;-61
2022/11/10 00:30:57;;;;;;;13.35;3.40;;;;;;;;;;4983558;28;20103;-61
2022/11/10 00:33:42;;;;;;;9.90;2.78;;;;;;;;;;4981096;28;20049;-61
2022/11/10 00:36:27;;;;;;;7.07;3.00;;;;;;;;;;4981170;28;20046;-60
2022/11/10 00:39:12;;;;;;;8.27;2.75;;;;;;;;;;4982903;28;20058;-60
2022/11/10 00:41:57;;;;;;;7.25;2.92;;;;;;;;;;4983276;28;20117;-61
2022/11/10 00:44:41;;;;;;;13.13;3.90;;;;;;;;;;4981049;28;20088;-61
2022/11/10 00:47:26;;;;;;;11.43;3.40;;;;;;;;;;4980737;28;20037;-60
2022/11/10 00:50:10;;;;;;;9.45;2.83;;;;;;;;;;4982332;28;20042;-61
2022/11/10 00:52:55;;;;;;;18.15;3.25;;;;;;;;;;4983900;28;20171;-61
2022/11/10 00:55:40;;;;;;;10.70;3.42;;;;;;;;;;4980906;28;20041;-60
2022/11/10 00:58:24;;;;;;;9.13;3.00;;;;;;;;;;4984881;28;20506;-60
2022/11/10 01:01:10;;;;;;;7.47;3.13;;;;;;;;;;4985896;28;20089;-61
2022/11/10 01:03:55;;;;;;;9.05;2.90;;;;;;;;;;4979946;28;20381;-60
2022/11/10 01:06:40;;;;;;;14.57;3.95;;;;;;;;;;4979758;28;20041;-60
2022/11/10 01:09:24;;;;;;;8.30;3.28;;;;;;;;;;4980498;28;20092;-61
2022/11/10 01:12:09;;;;;;;10.82;2.83;;;;;;;;;;4980516;28;20041;-60
2022/11/10 01:14:53;;;;;;;13.63;3.17;;;;;;;;;;4988066;28;20095;-60
2022/11/10 01:17:38;;;;;;;15.43;3.25;;;;;;;;;;4977408;28;20088;-61
2022/11/10 01:20:23;;;;;;;7.63;3.08;;;;;;;;;;4980576;28;20129;-60
2022/11/10 01:23:09;;;;;;;7.90;2.78;;;;;;;;;;4988478;28;20033;-60
2022/11/10 01:25:58;;;;;;;9.20;3.33;;;;;;;;;;4979736;28;20649;-60
2022/11/10 01:28:43;;;;;;;7.47;2.65;;;;;;;;;;4978380;28;20172;-60
2022/11/10 01:31:28;;;;;;;9.52;2.58;;;;;;;;;;4975685;28;20039;-60
2022/11/10 01:34:12;;;;;;;25.15;4.40;;;;;;;;;;4982137;28;20092;-60
2022/11/10 01:36:57;;;;;;;9.98;2.83;;;;;;;;;;4988052;28;20096;-60
2022/11/10 01:39:41;;;;;;;9.30;3.17;;;;;;;;;;4977545;28;20041;-61
2022/11/10 01:42:27;;;;;;;13.73;3.35;;;;;;;;;;4980292;28;20110;-60
2022/11/10 01:45:24;;;;;;;10.60;2.95;;;;;;;;;;4987821;28;20402;-61
2022/11/10 01:48:10;;;;;;;9.32;2.70;;;;;;;;;;4980944;28;20429;-61
2022/11/10 01:50:57;;;;;;;7.82;2.50;;;;;;;;;;4976851;28;20054;-61
2022/11/10 01:53:44;;;;;;;11.48;2.90;;;;;;;;;;4982381;28;20050;-61
2022/11/10 01:56:30;;;;;;;10.50;2.60;;;;;;;;;;4983480;28;20410;-61
2022/11/10 01:59:18;;;;;;;7.70;2.70;;;;;;;;;;4975131;28;20049;-61
2022/11/10 02:02:07;;;;;;;5.50;2.70;;;;;;;;;;4979315;28;20087;-60
2022/11/10 02:04:52;;;;;;;10.38;3.35;;;;;;;;;;4986291;28;20049;-60
2022/11/10 02:07:37;;;;;;;6.20;2.53;;;;;;;;;;4976350;28;20046;-60
2022/11/10 02:10:22;;;;;;;10.38;3.05;;;;;;;;;;4980885;28;20046;-59
2022/11/10 02:13:06;;;;;;;12.82;3.13;;;;;;;;;;4987755;28;20049;-61
2022/11/10 02:15:51;;;;;;;10.77;2.38;;;;;;;;;;4977443;28;20577;-60
2022/11/10 02:18:36;;;;;;;7.85;2.33;;;;;;;;;;4979264;28;20134;-60
2022/11/10 02:21:21;;;;;;;12.18;2.88;;;;;;;;;;4986618;28;20129;-61
2022/11/10 02:24:07;;;;;;;10.00;2.95;;;;;;;;;;4979462;28;20049;-61
2022/11/10 02:26:55;;;;;;;8.25;3.13;;;;;;;;;;4977125;28;20088;-60
2022/11/10 02:29:40;;;;;;;10.73;3.10;;;;;;;;;;4975660;28;20061;-61
2022/11/10 02:32:25;;;;;;;6.93;2.78;;;;;;;;;;4980521;28;20053;-61
2022/11/10 02:35:10;;;;;;;12.30;2.95;;;;;;;;;;4987066;28;20040;-60
2022/11/10 02:37:54;;;;;;;10.07;3.10;;;;;;;;;;4977340;28;20095;-61
2022/11/10 02:40:39;;;;;;;14.48;3.10;;;;;;;;;;4978793;28;20492;-61
2022/11/10 02:43:24;;;;;;;11.88;3.58;;;;;;;;;;4986486;28;20064;-60
2022/11/10 02:46:08;;;;;;;10.43;3.50;;;;;;;;;;4979165;28;20051;-61
2022/11/10 02:48:53;;;;;;;13.68;4.00;;;;;;;;;;4977937;28;20046;-60
2022/11/10 02:51:37;;;;;;;18.35;4.50;;;;;;;;;;4975146;28;20092;-61
2022/11/10 02:54:22;;;;;;;13.50;4.07;;;;;;;;;;4980568;28;20103;-61
2022/11/10 02:57:07;;;;;;;10.52;2.75;;;;;;;;;;4986824;28;20069;-61
2022/11/10 02:59:52;;;;;;;7.45;2.65;;;;;;;;;;4975049;28;20100;-61
2022/11/10 03:02:36;;;;;;;12.18;2.85;;;;;;;;;;4978365;28;20078;-61
2022/11/10 03:05:21;;;;;;;9.65;2.90;;;;;;;;;;4970673;28;20100;-60
2022/11/10 03:08:06;;;;;;;12.68;2.47;;;;;;;;;;4971229;28;20053;-60
2022/11/10 03:10:52;;;;;;;8.27;2.30;;;;;;;;;;4970843;28;20088;-60
2022/11/10 03:13:37;;;;;;;7.90;2.50;;;;;;;;;;4989221;28;20049;-61
2022/11/10 03:16:22;;;;;;;13.63;2.35;;;;;;;;;;4981001;28;20053;-61
2022/11/10 03:19:06;;;;;;;14.18;3.55;;;;;;;;;;4985634;28;20060;-60
2022/11/10 03:21:51;;;;;;;13.23;2.83;;;;;;;;;;4975555;28;20612;-61
2022/11/10 03:24:35;;;;;;;21.30;3.25;;;;;;;;;;4979383;28;20034;-60
2022/11/10 03:27:20;;;;;;;10.25;2.50;;;;;;;;;;4985861;28;20037;-60
2022/11/10 03:30:05;;;;;;;14.15;2.83;;;;;;;;;;4979329;28;20057;-61
2022/11/10 03:32:50;;;;;;;9.52;3.17;;;;;;;;;;4981318;28;20042;-61
2022/11/10 03:35:34;;;;;;;8.25;2.50;;;;;;;;;;4990154;28;20425;-61
2022/11/10 03:38:19;;;;;;;13.65;2.53;;;;;;;;;;4985868;28;20439;-61
2022/11/10 03:41:04;;;;;;;9.70;2.42;;;;;;;;;;4978889;28;20136;-61
2022/11/10 03:43:49;;;;;;;9.70;2.10;;;;;;;;;;4978328;28;20163;-61
2022/11/10 03:46:33;;;;;;;9.50;2.33;;;;;;;;;;4983104;28;20038;-61
2022/11/10 03:49:18;;;;;;;12.48;4.82;;;;;;;;;;4989377;28;20120;-61
2022/11/10 03:52:02;;;;;;;9.80;2.38;;;;;;;;;;4980117;28;20065;-60
2022/11/10 03:54:47;;;;;;;14.55;2.63;;;;;;;;;;4981250;28;20108;-61
2022/11/10 03:57:31;;;;;;;6.15;2.38;;;;;;;;;;4989189;28;20083;-61
2022/11/10 04:00:16;;;;;;;10.18;2.42;;;;;;;;;;4981170;28;20403;-61
2022/11/10 04:03:00;;;;;;;11.75;2.30;;;;;;;;;;4990175;28;20041;-61
2022/11/10 04:08:57;;;;;;;;;;;;;;;;;;4993355;28;20092;-61
2022/11/10 04:17:49;;;;;;;10.40;2.45;;;;;;;;;;4977029;28;20171;-60
2022/11/10 04:20:34;;;;;;;9.27;2.55;;;;;;;;;;4982600;28;20050;-61
2022/11/10 04:23:25;;;;;;;12.23;2.50;;;;;;;;;;4989419;28;20041;-61
2022/11/10 04:26:30;;;;;;;13.75;2.58;;;;;;;;;;4979398;28;20036;-60
2022/11/10 04:29:16;;;;;;;12.98;2.33;;;;;;;;;;4977970;28;20164;-60
2022/11/10 04:32:01;;;;;;;7.03;2.25;;;;;;;;;;4978154;28;20041;-60
2022/11/10 04:34:45;;;;;;;12.10;2.58;;;;;;;;;;4981977;28;20050;-61
2022/11/10 04:37:30;;;;;;;11.98;2.55;;;;;;;;;;4988991;28;20056;-61
2022/11/10 04:40:15;;;;;;;10.63;2.25;;;;;;;;;;4978932;28;20132;-61
2022/11/10 04:42:59;;;;;;;7.15;2.30;;;;;;;;;;4979504;28;20127;-61
2022/11/10 04:45:44;;;;;;;7.28;3.08;;;;;;;;;;4988657;28;20042;-61
2022/11/10 04:48:29;;;;;;;6.20;1.90;;;;;;;;;;4981152;28;20605;-61
2022/11/10 04:51:14;;;;;;;7.45;2.53;;;;;;;;;;4977857;28;20132;-61
2022/11/10 04:53:59;;;;;;;4.18;1.70;;;;;;;;;;4976772;28;20095;-61
2022/11/10 04:56:43;;;;;;;4.88;1.70;;;;;;;;;;4982445;28;20118;-61
2022/11/10 04:59:28;;;;;;;5.15;1.90;;;;;;;;;;4988893;28;20111;-60
2022/11/10 05:02:12;;;;;;;4.22;1.90;;;;;;;;;;4985383;28;20376;-61
2022/11/10 05:04:57;;;;;;;6.72;1.85;;;;;;;;;;4977433;28;20457;-61
2022/11/10 05:07:42;;;;;;;9.68;2.47;;;;;;;;;;4976721;28;20176;-61
2022/11/10 05:10:26;;;;;;;8.70;2.00;;;;;;;;;;4981999;28;20563;-61
2022/11/10 05:13:11;;;;;;;8.48;2.70;;;;;;;;;;4992313;28;20117;-61
2022/11/10 05:15:55;;;;;;;11.10;2.42;;;;;;;;;;4991674;28;20088;-61
2022/11/10 05:18:41;;;;;;;8.18;2.50;;;;;;;;;;4991725;28;20571;-60
2022/11/10 05:21:25;;;;;;;9.98;2.45;;;;;;;;;;4989947;28;20103;-61
2022/11/10 05:24:10;;;;;;;9.30;2.28;;;;;;;;;;4991240;28;20084;-60
2022/11/10 05:26:54;;;;;;;9.52;2.28;;;;;;;;;;4991384;28;20045;-61
2022/11/10 05:29:39;;;;;;;8.63;2.10;;;;;;;;;;4989689;28;20042;-61
2022/11/10 05:32:23;;;;;;;5.20;2.17;;;;;;;;;;4978929;28;20041;-60
2022/11/10 05:35:08;;;;;;;7.35;1.77;;;;;;;;;;4979223;28;20088;-60
2022/11/10 05:37:53;;;;;;;7.38;2.00;;;;;;;;;;4987527;28;20108;-60
2022/11/10 05:40:37;;;;;;;5.40;2.47;;;;;;;;;;4980482;28;20045;-60
2022/11/10 05:43:22;;;;;;;6.85;1.90;;;;;;;;;;4977467;28;20583;-61
2022/11/10 05:46:07;;;;;;;6.05;1.88;;;;;;;;;;4976530;28;20088;-61
2022/11/10 05:48:51;;;;;;;5.03;1.95;;;;;;;;;;4981413;28;20041;-61
2022/11/10 05:51:36;;;;;;;8.52;2.10;;;;;;;;;;5007538;28;20040;-61
2022/11/10 05:54:21;;;;;;;5.97;1.95;;;;;;;;;;4973335;28;20748;-60
2022/11/10 05:57:05;;;;;;;4.85;1.55;;;;;;;;;;4984727;28;20087;-60
2022/11/10 05:59:50;;;;;;;7.82;1.95;;;;;;;;;;5008004;28;20081;-61
2022/11/10 06:02:34;;;;;;;3.38;1.73;;;;;;;;;;4991247;28;20069;-60
2022/11/10 06:05:19;;;;;;;8.82;2.35;;;;;;;;;;4981767;28;20135;-60
2022/11/10 06:08:04;;;;;;;8.98;2.28;;;;;;;;;;4981284;28;20038;-61
2022/11/10 06:10:48;;;;;;;8.10;2.53;;;;;;;;;;4984782;28;20099;-61
2022/11/10 06:13:33;;;;;;;16.35;4.93;;;;;;;;;;4984794;28;20045;-61
2022/11/10 06:16:17;;;;;;;9.07;2.75;;;;;;;;;;4981291;28;20565;-61
2022/11/10 06:19:02;;;;;;;6.20;2.40;;;;;;;;;;4985828;28;20100;-60
2022/11/10 06:21:47;;;;;;;6.00;1.85;;;;;;;;;;4984828;28;20068;-60
2022/11/10 06:24:31;;;;;;;8.30;2.40;;;;;;;;;;4987241;28;20518;-60
2022/11/10 06:27:16;;;;;;;10.35;2.72;;;;;;;;;;4989865;28;20120;-60
2022/11/10 06:30:00;;;;;;;7.32;2.55;;;;;;;;;;4980574;28;20563;-61
2022/11/10 06:32:45;;;;;;;7.60;2.45;;;;;;;;;;4987222;28;20526;-61
2022/11/10 06:35:29;;;;;;;7.13;2.60;;;;;;;;;;4984930;28;20256;-61
2022/11/10 06:38:14;;;;;;;8.65;2.83;;;;;;;;;;4989182;28;20466;-61
2022/11/10 06:40:59;;;;;;;9.88;2.97;;;;;;;;;;4978462;28;20115;-61
2022/11/10 06:43:43;;;;;;;9.23;2.75;;;;;;;;;;4986129;28;20183;-60
2022/11/10 06:46:28;;;;;;;11.90;3.60;;;;;;;;;;4987868;28;20037;-61
2022/11/10 06:49:12;;;;;;;8.23;3.10;;;;;;;;;;4980825;28;20049;-60
2022/11/10 06:51:57;;;;;;;7.00;2.58;;;;;;;;;;4989989;28;20046;-60
2022/11/10 06:54:41;;;;;;;8.98;2.90;;;;;;;;;;4990544;28;20096;-60
2022/11/10 06:57:26;;;;;;;8.15;2.53;;;;;;;;;;4989925;28;20100;-60
2022/11/10 07:00:11;;;;;;;8.48;2.60;;;;;;;;;;4985613;28;20057;-60
2022/11/10 07:03:06;;;;;;;6.18;2.40;;;;;;;;;;4986780;28;20414;-61
2022/11/10 07:05:51;;;;;;;8.10;2.67;;;;;;;;;;4975424;28;20053;-60
2022/11/10 07:08:35;;;;;;;12.70;4.07;;;;;;;;;;4982544;28;20057;-61
2022/11/10 07:11:20;;;;;;;8.23;2.50;;;;;;;;;;4975535;28;20115;-60
2022/11/10 07:14:04;;;;;;;7.68;2.92;;;;;;;;;;4986636;28;20044;-60
2022/11/10 07:16:49;;;;;;;6.22;2.97;;;;;;;;;;4984529;28;20049;-60
2022/11/10 07:19:34;;;;;;;7.20;2.42;;;;;;;;;;4981476;28;20087;-60
2022/11/10 07:22:18;;;;;;;5.75;2.67;;;;;;;;;;4980381;28;20096;-60
2022/11/10 07:25:02;;;;;;;5.47;2.20;;;;;;;;;;4987992;28;20526;-60
2022/11/10 07:27:52;;;;;;;7.03;2.92;;;;;;;;;;4979353;28;20045;-60
2022/11/10 07:30:40;;;;;;;11.80;3.35;;;;;;;;;;4985920;28;20041;-60
2022/11/10 07:33:25;;;;;;;18.38;5.40;;;;;;;;;;4980899;28;20408;-60
2022/11/10 07:36:09;;;;;;;13.27;4.47;;;;;;;;;;4983533;28;20073;-60
2022/11/10 07:38:54;;;;;;;17.23;4.95;;;;;;;;;;4977385;28;20088;-60
2022/11/10 07:41:39;;;;;;;15.10;4.63;;;;;;;;;;4974412;28;20122;-60
2022/11/10 07:44:24;;;;;;;19.98;4.65;;;;;;;;;;4979492;28;20045;-60
2022/11/10 07:47:09;;;;;;;18.17;4.45;;;;;;;;;;4974991;28;20514;-60
2022/11/10 07:49:54;;;;;;;20.15;3.80;;;;;;;;;;4985261;28;20096;-60
2022/11/10 07:52:38;;;;;;;11.02;3.42;;;;;;;;;;4983322;28;20038;-60
2022/11/10 07:55:23;;;;;;;11.05;4.63;;;;;;;;;;4983515;28;20091;-60
2022/11/10 07:58:08;;;;;;;10.25;3.55;;;;;;;;;;4977323;28;20057;-60
2022/11/10 08:00:52;;;;;;;13.88;4.05;;;;;;;;;;4987162;28;20118;-60
2022/11/10 08:03:37;;;;;;;8.00;3.45;;;;;;;;;;4983350;28;20167;-60
2022/11/10 08:06:22;;;;;;;11.98;3.47;;;;;;;;;;4976518;28;20177;-60
2022/11/10 08:09:06;;;;;;;12.65;4.32;;;;;;;;;;4984628;28;20069;-60
2022/11/10 08:11:51;;;;;;;12.55;4.38;;;;;;;;;;4980767;28;20543;-60
2022/11/10 08:14:35;;;;;;;11.68;4.00;;;;;;;;;;4978891;28;20058;-60
2022/11/10 08:17:20;;;;;;;11.70;5.25;;;;;;;;;;4981991;28;20050;-60
2022/11/10 08:20:05;;;;;;;16.30;6.28;;;;;;;;;;4987053;28;20041;-60
2022/11/10 08:22:57;;;;;;;11.40;5.32;;;;;;;;;;4983244;28;20037;-60
2022/11/10 08:25:42;;;;;;;17.23;4.95;;;;;;;;;;4985485;28;20053;-60
2022/11/10 08:28:27;;;;;;;11.85;4.70;;;;;;;;;;4979884;28;20034;-60
2022/11/10 08:31:11;;;;;;;12.10;4.45;;;;;;;;;;4982777;28;20084;-65
2022/11/10 08:33:56;;;;;;;12.70;5.40;;;;;;;;;;4979388;28;20053;-61
2022/11/10 08:36:40;;;;;;;14.45;5.30;;;;;;;;;;4979022;28;20038;-61
2022/11/10 08:39:25;;;;;;;22.92;6.22;;;;;;;;;;4982998;28;20448;-61
2022/11/10 08:42:09;;;;;;;23.00;6.53;;;;;;;;;;4979959;28;20084;-61
2022/11/10 08:44:54;;;;;;;17.02;6.22;;;;;;;;;;4981360;28;20099;-61
2022/11/10 08:47:38;;;;;;;12.18;6.63;;;;;;;;;;4984116;28;20097;-61
2022/11/10 08:50:23;;;;;;;16.08;4.55;;;;;;;;;;4988224;28;20556;-62
2022/11/10 08:53:11;;;;;;;14.60;4.15;;;;;;;;;;4980760;28;20503;-62
2022/11/10 08:55:58;;;;;;;12.57;4.18;;;;;;;;;;4985571;28;20049;-61
2022/11/10 08:58:43;;;;;;;15.73;4.00;;;;;;;;;;4979493;28;20383;-61
2022/11/10 09:01:28;;;;;;;12.65;2.95;;;;;;;;;;4983178;28;20111;-61
2022/11/10 09:04:14;;;;;;;12.15;2.72;;;;;;;;;;4981834;28;20086;-62
2022/11/10 09:06:59;;;;;;;11.68;2.65;;;;;;;;;;4981523;28;20597;-61
2022/11/10 09:09:43;;;;;;;15.18;3.35;;;;;;;;;;4977357;28;20087;-62
2022/11/10 09:12:28;;;;;;;13.52;4.90;;;;;;;;;;4979994;28;20049;-61
2022/11/10 09:15:13;;;;;;;25.08;5.43;;;;;;;;;;4981247;28;20130;-61
2022/11/10 09:17:59;;;;;;;16.02;4.88;;;;;;;;;;4981459;28;20192;-61
2022/11/10 09:20:43;;;;;;;24.25;4.75;;;;;;;;;;4982163;28;20042;-61
2022/11/10 09:23:28;;;;;;;15.93;2.95;;;;;;;;;;4985336;28;20045;-61
2022/11/10 09:26:12;;;;;;;10.80;3.20;;;;;;;;;;4985999;28;20037;-61
2022/11/10 09:28:57;;;;;;;14.70;3.03;;;;;;;;;;4981986;28;20045;-61
2022/11/10 09:31:43;;;;;;;9.30;2.53;;;;;;;;;;4981972;28;20077;-61
2022/11/10 09:34:28;;;;;;;23.08;3.90;;;;;;;;;;4986253;28;20119;-61
2022/11/10 09:37:13;;;;;;;10.68;2.50;;;;;;;;;;5003342;28;20108;-61
2022/11/10 09:39:58;;;;;;;16.77;4.72;;;;;;;;;;4987006;28;20045;-61
2022/11/10 09:42:43;;;;;;;17.98;3.55;;;;;;;;;;4987580;28;20033;-62
2022/11/10 09:45:34;;;;;;;25.85;5.22;;;;;;;;;;4996155;28;20537;-61
2022/11/10 09:48:51;;;;;;;14.18;4.43;;;;;;;;;;5005300;28;20029;-61
2022/11/10 09:51:38;;;;;;;19.90;5.00;;;;;;;;;;5041222;28;20075;-60
2022/11/10 09:54:29;;;;;;;11.82;3.35;;;;;;;;;;5042549;28;20596;-61
2022/11/10 09:57:15;;;;;;;16.38;3.08;;;;;;;;;;5042716;28;20119;-62
2022/11/10 10:00:00;;;;;;;13.48;3.20;;;;;;;;;;5037192;28;20108;-60
2022/11/10 10:02:47;;;;;;;14.30;3.00;;;;;;;;;;5041934;28;20123;-61
2022/11/10 10:05:32;;;;;;;13.90;3.08;;;;;;;;;;5046285;28;20091;-61
2022/11/10 10:08:25;;;;;;;15.82;3.15;;;;;;;;;;5048900;28;20027;-61
2022/11/10 10:11:15;;;;;;;23.33;4.85;;;;;;;;;;5037828;28;20040;-61
2022/11/10 10:14:02;;;;;;;15.18;3.30;;;;;;;;;;5038088;28;20045;-61
2022/11/10 10:16:47;;;;;;;11.93;2.60;;;;;;;;;;5040677;28;20741;-61
2022/11/10 10:19:50;;;;;;;14.88;3.53;;;;;;;;;;5033506;28;20363;-61
2022/11/10 10:22:55;;;;;;;13.88;2.17;;;;;;;;;;5042483;28;20433;-61
2022/11/10 10:25:41;;;;;;;12.48;2.10;;;;;;;;;;5039720;28;20551;-61
2022/11/10 10:28:32;;;;;;;13.68;2.05;;;;;;;;;;4985693;28;20073;-61
2022/11/10 10:31:20;;;;;;;11.30;2.60;;;;;;;;;;4980746;28;20044;-61
2022/11/10 10:34:10;;;;;;;12.02;2.78;;;;;;;;;;4982110;28;20085;-61
2022/11/10 10:36:55;;;;;;;11.10;2.55;;;;;;;;;;4978520;28;20080;-61
2022/11/10 10:39:45;;;;;;;14.52;2.45;;;;;;;;;;4983763;28;20828;-61
2022/11/10 10:42:32;;;;;;;23.70;3.75;;;;;;;;;;4979230;28;20522;-61
2022/11/10 10:45:24;;;;;;;13.68;2.17;;;;;;;;;;4983244;28;20042;-62
2022/11/10 10:48:26;;;;;;;12.43;3.55;;;;;;;;;;4983537;28;20399;-61
2022/11/10 10:51:11;;;;;;;15.07;1.80;;;;;;;;;;4977468;28;20042;-61
2022/11/10 10:53:55;;;;;;;8.57;2.28;;;;;;;;;;4976221;28;20172;-61
2022/11/10 10:56:40;;;;;;;16.52;2.67;;;;;;;;;;4984429;28;20049;-61
2022/11/10 10:59:24;;;;;;;18.45;2.58;;;;;;;;;;4979258;28;20048;-61
2022/11/10 11:02:24;;;;;;;12.02;2.47;;;;;;;;;;4980279;28;20030;-61
2022/11/10 11:05:17;;;;;;;13.23;3.25;;;;;;;;;;4984894;28;20061;-61
2022/11/10 11:08:02;;;;;;;6.78;2.22;;;;;;;;;;4979115;28;20581;-61
2022/11/10 11:10:47;;;;;;;15.15;2.55;;;;;;;;;;4980739;28;20041;-61
2022/11/10 11:13:31;;;;;;;9.68;3.55;;;;;;;;;;4988672;28;20046;-61
2022/11/10 11:16:16;;;;;;;6.68;1.60;;;;;;;;;;4978785;28;20415;-61
2022/11/10 11:19:01;;;;;;;11.55;1.80;;;;;;;;;;4980516;28;20045;-61
2022/11/10 11:21:57;;;;;;;11.32;1.58;;;;;;;;;;4983891;28;20100;-61
2022/11/10 11:24:45;;;;;;;11.73;1.77;;;;;;;;;;4980745;28;20045;-62
2022/11/10 11:27:33;;;;;;;13.07;1.98;;;;;;;;;;4987984;28;20069;-62
2022/11/10 11:30:19;;;;;;;12.57;2.45;;;;;;;;;;4977695;28;20530;-61
2022/11/10 11:33:22;;;;;;;8.07;1.88;;;;;;;;;;4981689;28;20124;-61
2022/11/10 11:36:07;;;;;;;10.98;2.13;;;;;;;;;;4986411;28;20045;-61
2022/11/10 11:39:04;;;;;;;9.20;2.33;;;;;;;;;;4982730;28;20104;-61
2022/11/10 11:41:55;;;;;;;16.42;1.85;;;;;;;;;;4982540;28;20038;-61
2022/11/10 11:44:58;;;;;;;7.15;1.40;;;;;;;;;;4988078;28;20065;-61
2022/11/10 11:48:03;;;;;;;7.55;1.50;;;;;;;;;;4979359;28;20455;-61
2022/11/10 11:50:54;;;;;;;7.53;1.33;;;;;;;;;;4988048;28;20037;-61
2022/11/10 11:53:54;;;;;;;5.53;1.30;;;;;;;;;;4989491;28;20030;-61
2022/11/10 11:56:41;;;;;;;5.47;1.23;;;;;;;;;;4985449;28;20041;-61
2022/11/10 11:59:45;;;;;;;10.07;1.42;;;;;;;;;;4989224;28;20045;-61
2022/11/10 12:02:42;;;;;;;8.15;1.30;;;;;;;;;;4984272;28;20519;-62
2022/11/10 12:05:42;;;;;;;7.97;1.50;;;;;;;;;;4974415;28;20042;-62
2022/11/10 12:08:45;;;;;;;6.18;1.50;;;;;;;;;;4988067;28;20513;-61
2022/11/10 12:11:37;;;;;;;6.75;1.20;;;;;;;;;;4984115;28;20435;-62
2022/11/10 12:14:31;;;;;;;5.40;1.58;;;;;;;;;;4987369;28;20038;-61
2022/11/10 12:17:16;;;;;;;8.93;1.50;;;;;;;;;;4983445;28;20096;-61
2022/11/10 12:20:01;;;;;;;5.05;1.77;;;;;;;;;;4984802;28;20493;-61
2022/11/10 12:23:01;;;;;;;9.73;1.60;;;;;;;;;;4982654;28;20537;-62
2022/11/10 12:25:58;;;;;;;6.63;1.48;;;;;;;;;;4982103;28;20089;-61
2022/11/10 12:28:45;;;;;;;5.55;1.55;;;;;;;;;;4982864;28;20045;-62
2022/11/10 12:31:31;;;;;;;5.70;1.55;;;;;;;;;;4988037;28;20050;-61
2022/11/10 12:34:24;;;;;;;7.07;1.20;;;;;;;;;;4984394;28;20048;-62
2022/11/10 12:37:15;;;;;;;9.63;1.45;;;;;;;;;;4992815;28;20095;-61
2022/11/10 12:40:12;;;;;;;4.43;1.42;;;;;;;;;;4988292;28;20134;-61
2022/11/10 12:43:01;;;;;;;6.80;2.15;;;;;;;;;;4989235;28;20041;-61
2022/11/10 12:45:48;;;;;;;5.05;1.52;;;;;;;;;;4993134;28;20441;-61
2022/11/10 12:48:41;;;;;;;5.63;1.20;;;;;;;;;;4992371;28;20452;-61
2022/11/10 12:51:35;;;;;;;9.43;2.60;;;;;;;;;;4992803;28;20092;-62
2022/11/10 12:54:21;;;;;;;8.02;2.08;;;;;;;;;;4992224;28;20502;-61
2022/11/10 12:57:17;;;;;;;4.38;1.17;;;;;;;;;;4992823;28;20041;-61
2022/11/10 13:00:05;;;;;;;9.88;1.52;;;;;;;;;;4992463;28;20046;-61
2022/11/10 13:02:51;;;;;;;5.22;1.25;;;;;;;;;;4983300;28;20049;-61
2022/11/10 13:05:39;;;;;;;8.75;1.02;;;;;;;;;;4992826;28;20106;-61
2022/11/10 13:08:31;;;;;;;5.13;1.38;;;;;;;;;;4992212;28;20088;-62
2022/11/10 13:11:16;;;;;;;5.57;1.33;;;;;;;;;;4992147;28;20095;-61
2022/11/10 13:14:18;;;;;;;8.25;1.95;;;;;;;;;;4976333;28;20038;-61
2022/11/10 13:17:03;;;;;;;12.60;2.33;;;;;;;;;;4973094;28;20042;-61
2022/11/10 13:19:48;;;;;;;5.68;1.60;;;;;;;;;;4972986;28;20479;-61
2022/11/10 13:22:35;;;;;;;6.72;1.42;;;;;;;;;;4972349;28;20057;-62
2022/11/10 13:25:38;;;;;;;9.98;1.58;;;;;;;;;;4972982;28;20134;-61
2022/11/10 13:28:42;;;;;;;7.10;1.20;;;;;;;;;;4972777;28;20091;-61
2022/11/10 13:31:27;;;;;;;5.88;1.30;;;;;;;;;;4972656;28;20075;-61
2022/11/10 13:34:25;;;;;;;5.72;1.35;;;;;;;;;;4984989;28;20502;-61
2022/11/10 13:37:29;;;;;;;5.30;1.23;;;;;;;;;;4975167;28;20065;-61
2022/11/10 13:40:16;;;;;;;5.90;1.33;;;;;;;;;;4975675;28;20538;-61
2022/11/10 13:43:01;;;;;;;5.13;1.27;;;;;;;;;;4992165;28;20037;-61
2022/11/10 13:45:46;;;;;;;6.90;1.40;;;;;;;;;;4977882;28;20042;-61
2022/11/10 13:48:31;;;;;;;4.22;1.58;;;;;;;;;;4972446;28;20078;-62
2022/11/10 13:51:31;;;;;;;4.25;0.73;;;;;;;;;;4972311;28;20093;-62
2022/11/10 13:54:35;;;;;;;3.95;1.08;;;;;;;;;;4972418;28;20607;-62
2022/11/10 13:57:22;;;;;;;3.45;1.00;;;;;;;;;;4972126;28;20050;-61
2022/11/10 14:00:27;;;;;;;2.67;0.82;;;;;;;;;;4972429;28;20137;-62
2022/11/10 14:03:32;;;;;;;4.68;0.85;;;;;;;;;;4974166;28;20097;-61
2022/11/10 14:06:46;;;;;;;3.78;1.00;;;;;;;;;;4972005;28;20105;-61
2022/11/10 14:09:33;;;;;;;3.25;0.98;;;;;;;;;;4976692;28;20088;-61
2022/11/10 14:12:18;;;;;;;3.33;1.10;;;;;;;;;;4971874;28;20092;-61
2022/11/10 14:15:05;;;;;;;3.08;0.88;;;;;;;;;;4971682;28;20037;-61
2022/11/10 14:17:52;;;;;;;8.85;1.00;;;;;;;;;;4972186;28;20045;-61
2022/11/10 14:20:43;;;;;;;2.65;1.10;;;;;;;;;;4971593;28;20104;-61
2022/11/10 14:23:37;;;;;;;3.33;1.08;;;;;;;;;;4972265;28;20136;-61
2022/11/10 14:26:31;;;;;;;5.93;1.50;;;;;;;;;;4971880;28;20415;-61
2022/11/10 14:29:39;;;;;;;10.18;1.10;;;;;;;;;;4971628;28;20084;-61
2022/11/10 14:32:25;;;;;;;5.28;1.13;;;;;;;;;;4971413;28;20069;-61
2022/11/10 14:35:24;;;;;;;4.43;1.70;;;;;;;;;;4971490;28;20123;-61
2022/11/10 14:38:19;;;;;;;1.88;0.80;;;;;;;;;;4972801;28;20392;-61
2022/11/10 14:41:05;;;;;;;6.60;1.10;;;;;;;;;;4978854;28;20084;-61
2022/11/10 14:44:03;;;;;;;4.15;1.00;;;;;;;;;;4976381;28;20506;-61
2022/11/10 14:46:48;;;;;;;5.80;1.20;;;;;;;;;;4977898;28;20523;-61
2022/11/10 14:49:32;;;;;;;6.93;1.00;;;;;;;;;;4987126;28;20139;-61
2022/11/10 14:52:17;;;;;;;3.63;1.10;;;;;;;;;;4979473;28;20060;-61
2022/11/10 14:55:06;;;;;;;8.70;1.02;;;;;;;;;;4976099;28;20045;-61
2022/11/10 14:57:53;;;;;;;4.18;0.80;;;;;;;;;;4971757;28;20172;-60
2022/11/10 15:00:39;;;;;;;3.08;0.70;;;;;;;;;;4971552;28;20546;-61
2022/11/10 15:03:36;;;;;;;6.18;1.02;;;;;;;;;;4970715;28;20096;-61
2022/11/10 15:06:21;;;;;;;4.47;1.05;;;;;;;;;;4971312;28;20508;-61
2022/11/10 15:09:13;;;;;;;2.83;1.15;;;;;;;;;;4971573;28;20041;-61
2022/11/10 15:12:06;;;;;;;6.32;1.13;;;;;;;;;;4971586;28;20404;-61
2022/11/10 15:14:58;;;;;;;3.35;1.00;;;;;;;;;;4971364;28;20068;-60
2022/11/10 15:17:44;;;;;;;3.20;1.20;;;;;;;;;;4970729;28;20046;-61
2022/11/10 15:20:39;;;;;;;3.90;0.88;;;;;;;;;;4971132;28;20042;-61
2022/11/10 15:23:26;;;;;;;6.53;0.80;;;;;;;;;;4971308;28;20128;-61
2022/11/10 15:26:33;;;;;;;1.20;0.80;;;;;;;;;;4970259;28;20057;-61
2022/11/10 15:29:18;;;;;;;5.30;0.90;;;;;;;;;;4970872;28;20034;-61
2022/11/10 15:32:05;;;;;;;4.60;1.50;;;;;;;;;;4970780;28;20045;-61
2022/11/10 15:34:51;;;;;;;7.50;2.08;;;;;;;;;;4971285;28;20058;-61
2022/11/10 15:37:36;;;;;;;4.65;1.42;;;;;;;;;;4970976;28;20408;-61
2022/11/10 15:40:31;;;;;;;4.38;1.40;;;;;;;;;;4972463;28;20082;-61
2022/11/10 15:43:25;;;;;;;4.85;1.63;;;;;;;;;;4990086;28;20125;-61
2022/11/10 15:46:21;;;;;;;5.80;1.17;;;;;;;;;;4990209;28;20041;-61
2022/11/10 15:49:24;;;;;;;3.42;2.03;;;;;;;;;;4990227;28;20085;-60
2022/11/10 15:52:15;;;;;;;4.03;1.65;;;;;;;;;;4990367;28;20565;-61
2022/11/10 15:54:59;;;;;;;2.60;1.42;;;;;;;;;;4990248;28;20049;-60
2022/11/10 15:57:44;;;;;;;4.30;1.73;;;;;;;;;;4989902;28;20145;-61
2022/11/10 16:00:28;;;;;;;3.08;1.45;;;;;;;;;;4972628;28;20558;-61
2022/11/10 16:03:14;;;;;;;3.67;1.30;;;;;;;;;;4985671;28;20057;-60
2022/11/10 16:05:58;;;;;;;2.97;1.40;;;;;;;;;;4979286;28;20393;-61
2022/11/10 16:08:43;;;;;;;2.97;1.05;;;;;;;;;;4981386;28;20112;-62
2022/11/10 16:11:29;;;;;;;5.20;1.48;;;;;;;;;;4980375;28;20110;-61
2022/11/10 16:14:15;;;;;;;5.03;2.55;;;;;;;;;;4979644;28;20046;-61
2022/11/10 16:17:00;;;;;;;2.05;0.90;;;;;;;;;;4972856;28;20050;-61
2022/11/10 16:19:45;;;;;;;6.55;1.10;;;;;;;;;;4975422;28;20404;-61
2022/11/10 16:22:30;;;;;;;3.60;0.80;;;;;;;;;;4979794;28;20037;-61
2022/11/10 16:25:14;;;;;;;5.68;1.23;;;;;;;;;;4972397;28;20074;-61
2022/11/10 16:28:02;;;;;;;7.55;1.20;;;;;;;;;;4981863;28;20046;-61
2022/11/10 16:30:47;;;;;;;3.35;1.42;;;;;;;;;;4977165;28;20463;-61
2022/11/10 16:33:31;;;;;;;2.85;1.08;;;;;;;;;;4972880;28;20111;-61
2022/11/10 16:36:15;;;;;;;4.53;0.90;;;;;;;;;;4980465;28;20502;-61
2022/11/10 16:39:08;;;;;;;32.83;2.60;;;;;;;;;;4979194;28;20041;-61
2022/11/10 16:41:52;;;;;;;3.10;1.20;;;;;;;;;;4981759;28;20131;-61
2022/11/10 16:44:37;;;;;;;5.32;0.85;;;;;;;;;;4981736;28;20087;-61
2022/11/10 16:47:22;;;;;;;2.35;1.13;;;;;;;;;;4988261;28;20042;-61
2022/11/10 16:50:23;;;;;;;5.88;1.10;;;;;;;;;;4980532;28;20475;-60